KPOE

Polk AAF Airport

Fort Polk, Louisiana, USA
METAR KPOE 181458Z AUTO 06005KT 10SM CLR M04/M10 A3058 RMK AO2 SLP362 T10451103 51003
Observed Flight Rules
Jan-18 @ 14:58 UTC (38 minutes ago) Visual Flight Rules
Wind Visibility Clouds
60° at 5 knots 10 miles
  • Clear skies
Temperatures Readings
Current -5°C / 23°F
Dewpoint -10°C / 14°F
Humidity 68%
Altimeter 30.58" Hg
Pressure 1036.2 hPa
Elevation 101
METAR KPOE 181458Z AUTO 06005KT 10SM CLR M04/M10 A3058 RMK AO2 SLP362 T10451103 51003
Observed Flight Rules
Jan-18 @ 14:58 UTC
(38 minutes ago)
VFR
Wind Visibility
60° at 5 knots 10 miles
Clouds
  • Clear skies
Temperature Dewpoint
-5°C / 23°F -10°C / 14°F
Humidity Altimeter Pressure
68% 30.58" Hg 1036.2 hPa